Time;durP1;ratioP1;P1;durP2;ratioP2;P2;SDS_P1;SDS_P2;PMS_P1;PMS_P2;Temp;Humidity;BMP_temperature;BMP_pressure;BME280_temperature;BME280_humidity;BME280_pressure;Samples;Min_cycle;Max_cycle;Signal;HPM_P1;HPM_P2
2021/05/25 06:45:39;;;;;;;;;;;;;;;13.46;59.13;99540.34;4300114;26;20237;-84
2021/05/25 06:48:04;;;;;;;;;;;;;;;13.42;59.16;99555.66;4954874;29;20025;-85
2021/05/25 06:50:30;;;;;;;;;;;;;;;13.43;59.27;99544.03;4955798;29;19923;-82
2021/05/25 06:52:55;;;;;;;;;;;;;;;13.44;59.24;99541.28;4954505;29;19926;-83
2021/05/25 06:55:21;;;;;;;;;;;;;;;13.42;59.41;99553.84;4955336;29;20025;-83
2021/05/25 06:57:47;;;;;;;;;;;;;;;13.41;59.47;99557.44;4940594;29;20405;-82
2021/05/25 07:00:13;;;;;;;;;;;;;;;13.42;59.36;99550.31;4935348;29;19923;-82
2021/05/25 07:02:38;;;;;;;;;;;;;;;13.42;59.40;99564.47;4936950;29;19924;-82
2021/05/25 07:05:05;;;;;;;;;;;;;;;13.44;59.37;99562.56;4948463;29;19931;-84
2021/05/25 07:07:30;;;;;;;;;;;;;;;13.41;59.46;99568.06;4948412;29;19923;-83
2021/05/25 07:09:55;;;;;;;;;;;;;;;13.44;59.41;99583.00;4936862;29;19961;-83
2021/05/25 07:12:21;;;;;;;;;;;;;;;13.44;59.41;99588.34;4950172;29;19959;-83
2021/05/25 07:14:46;;;;;;;;;;;;;;;13.41;59.47;99594.69;4953304;29;19934;-83
2021/05/25 07:17:12;;;;;;;;;;;;;;;13.43;59.29;99595.47;4952496;29;19923;-82
2021/05/25 07:19:38;;;;;;;;;;;;;;;13.44;59.33;99593.66;4950707;29;19951;-84
2021/05/25 07:22:04;;;;;;;;;;;;;;;13.43;59.26;99597.25;4951629;29;19923;-84
2021/05/25 07:24:29;;;;;;;;;;;;;;;13.42;59.20;99596.41;4953198;29;19950;-83
2021/05/25 07:26:55;;;;;;;;;;;;;;;13.43;59.26;99594.59;4952727;29;20405;-83
2021/05/25 07:29:20;;;;;;;;;;;;;;;13.42;59.40;99603.53;4948781;29;19934;-86
2021/05/25 07:31:46;;;;;;;;;;;;;;;13.43;59.27;99610.56;4944662;29;19923;-84
2021/05/25 07:34:11;;;;;;;;;;;;;;;13.44;59.02;99605.16;4941177;29;20278;-83
2021/05/25 07:36:37;;;;;;;;;;;;;;;13.44;59.08;99613.13;4931026;29;19963;-83
2021/05/25 07:39:03;;;;;;;;;;;;;;;13.44;58.96;99612.28;4923106;29;19966;-82
2021/05/25 07:41:28;;;;;;;;;;;;;;;13.43;59.19;99613.22;4927874;29;19927;-83
2021/05/25 07:43:54;;;;;;;;;;;;;;;13.43;59.15;99616.75;4943853;29;19931;-82
2021/05/25 07:46:22;;;;;;;;;;;;;;;13.83;61.52;99626.03;4940480;29;19953;-90
2021/05/25 07:48:48;;;;;;;;;;;;;;;14.31;60.78;99619.56;4941520;29;20085;-87
2021/05/25 07:51:13;;;;;;;;;;;;;;;14.20;60.64;99622.03;4944100;29;19978;-85
2021/05/25 07:53:38;;;;;;;;;;;;;;;14.03;60.92;99638.19;4952406;29;20458;-86
2021/05/25 07:56:04;;;;;;;;;;;;;;;13.88;61.09;99637.25;4951951;29;19934;-86
2021/05/25 07:58:29;;;;;;;;;;;;;;;13.81;61.17;99636.78;4955368;29;19923;-86
2021/05/25 08:00:55;;;;;;;;;;;;;;;13.76;61.30;99633.53;4953711;29;19927;-86
2021/05/25 08:03:21;;;;;;;;;;;;;;;13.72;60.96;99643.50;4952898;29;20005;-86
2021/05/25 08:05:46;;;;;;;;;;;;;;;13.71;60.71;99643.59;4953715;28;19933;-86
2021/05/25 08:08:12;;;;;;;;;;;;;;;13.69;60.65;99649.00;4953004;29;19923;-86
2021/05/25 08:10:37;;;;;;;;;;;;;;;13.69;60.51;99656.13;4953458;29;19926;-86
2021/05/25 08:13:06;;;;;;;;;;;;;;;13.67;60.38;99652.69;4952671;29;19933;-86
2021/05/25 08:15:34;;;;;;;;;;;;;;;13.66;59.99;99667.81;4953284;29;19922;-86
2021/05/25 08:20:25;;;;;;;;;;;;;;;13.64;60.04;99683.00;4952485;29;19941;-86
2021/05/25 08:22:53;;;;;;;;;;;;;;;13.63;60.17;99684.81;4951086;29;19926;-86
2021/05/25 08:25:19;;;;;;;;;;;;;;;13.64;60.14;99680.34;4952224;29;19934;-86
2021/05/25 08:27:46;;;;;;;;;;;;;;;13.62;60.17;99691.09;4952545;28;19926;-86
2021/05/25 08:30:15;;;;;;;;;;;;;;;13.64;60.09;99690.97;4952618;29;19927;-87
2021/05/25 08:32:41;;;;;;;;;;;;;;;13.60;60.12;99695.63;4952305;29;19929;-87
2021/05/25 08:35:06;;;;;;;;;;;;;;;13.62;60.05;99698.22;4952035;29;19982;-86
2021/05/25 08:37:34;;;;;;;;;;;;;;;13.60;60.08;99700.97;4952230;29;20037;-86
2021/05/25 08:40:01;;;;;;;;;;;;;;;13.60;59.99;99703.63;4952294;29;20016;-86
2021/05/25 08:42:26;;;;;;;;;;;;;;;13.58;60.06;99705.53;4952487;29;19923;-87
2021/05/25 08:44:51;;;;;;;;;;;;;;;13.58;60.05;99708.19;4951789;29;20126;-86
2021/05/25 08:47:17;;;;;;;;;;;;;;;13.58;60.00;99716.16;4951737;29;19950;-86
2021/05/25 08:49:44;;;;;;;;;;;;;;;13.57;60.12;99727.75;4951566;29;20017;-86
2021/05/25 08:52:10;;;;;;;;;;;;;;;13.58;60.14;99723.31;4952249;29;19923;-86
2021/05/25 08:54:38;;;;;;;;;;;;;;;13.59;60.03;99722.34;4951817;29;20017;-86
2021/05/25 08:57:03;;;;;;;;;;;;;;;13.59;59.92;99725.88;4948658;28;19922;-86
2021/05/25 08:59:29;;;;;;;;;;;;;;;13.59;60.09;99720.56;4950397;29;19922;-86
2021/05/25 09:01:54;;;;;;;;;;;;;;;13.58;60.22;99732.13;4952577;29;19922;-85
2021/05/25 09:04:19;;;;;;;;;;;;;;;13.58;60.26;99740.13;4955809;29;19917;-86
